createdAt,value
2023-05-01T00:00:14.503Z,-89
2023-05-01T00:02:43.294Z,-89
2023-05-01T00:05:12.164Z,-89
2023-05-01T00:07:40.666Z,-88
2023-05-01T00:10:10.905Z,-90
2023-05-01T00:12:39.712Z,-89
2023-05-01T00:15:12.865Z,-89
2023-05-01T00:17:41.363Z,-89
2023-05-01T00:20:11.960Z,-89
2023-05-01T00:22:40.640Z,-89
2023-05-01T00:25:10.735Z,-89
2023-05-01T00:27:39.381Z,-89
2023-05-01T00:30:10.133Z,-89
2023-05-01T00:32:41.570Z,-89
2023-05-01T00:35:10.974Z,-89
2023-05-01T00:37:39.551Z,-89
2023-05-01T00:40:11.226Z,-90
2023-05-01T00:42:40.903Z,-89
2023-05-01T00:45:11.125Z,-90
2023-05-01T00:47:41.409Z,-89
2023-05-01T00:50:11.964Z,-89
2023-05-01T00:52:41.048Z,-89
2023-05-01T00:55:10.579Z,-89
2023-05-01T00:57:39.388Z,-89
2023-05-01T01:00:12.915Z,-90
2023-05-01T01:02:43.181Z,-89
2023-05-01T01:05:14.300Z,-89
2023-05-01T01:07:56.080Z,-89
2023-05-01T01:10:36.506Z,-89
2023-05-01T01:13:13.596Z,-89
2023-05-01T01:15:55.370Z,-89
2023-05-01T01:18:36.278Z,-89
2023-05-01T01:21:16.128Z,-89
2023-05-01T01:24:38.359Z,-89
2023-05-01T01:27:43.650Z,-88
2023-05-01T01:31:05.851Z,-89
2023-05-01T01:34:02.682Z,-88
2023-05-01T01:36:47.934Z,-88
2023-05-01T01:39:31.536Z,-89
2023-05-01T01:42:01.809Z,-88
2023-05-01T01:44:39.097Z,-89
2023-05-01T01:47:13.993Z,-89
2023-05-01T01:49:51.343Z,-88
2023-05-01T01:52:23.536Z,-88
2023-05-01T01:54:58.626Z,-88
2023-05-01T01:57:30.291Z,-89
2023-05-01T02:00:00.058Z,-88
2023-05-01T02:02:31.365Z,-89
2023-05-01T02:05:02.669Z,-89
2023-05-01T02:07:33.511Z,-89
2023-05-01T02:10:05.674Z,-89
2023-05-01T02:12:35.803Z,-88
2023-05-01T02:15:07.141Z,-88
2023-05-01T02:17:39.336Z,-89
2023-05-01T02:20:14.376Z,-89
2023-05-01T02:22:44.352Z,-88
2023-05-01T02:25:15.067Z,-88
2023-05-01T02:27:52.751Z,-89
2023-05-01T02:30:21.489Z,-89
2023-05-01T02:32:50.478Z,-88
2023-05-01T02:35:25.065Z,-89
2023-05-01T02:37:54.498Z,-89
2023-05-01T02:40:23.346Z,-89
2023-05-01T02:42:54.629Z,-89
2023-05-01T02:45:27.116Z,-89
2023-05-01T02:48:02.777Z,-89
2023-05-01T02:50:34.079Z,-89
2023-05-01T02:53:03.294Z,-89
2023-05-01T02:55:36.683Z,-90
2023-05-01T02:58:06.752Z,-89
2023-05-01T03:00:35.996Z,-89
2023-05-01T03:03:04.856Z,-89
2023-05-01T03:05:35.175Z,-89
2023-05-01T03:08:04.795Z,-89
2023-05-01T03:10:34.907Z,-90
2023-05-01T03:13:03.900Z,-88
2023-05-01T03:15:32.992Z,-88
2023-05-01T03:18:01.893Z,-88
2023-05-01T03:20:31.812Z,-88
2023-05-01T03:23:02.096Z,-89
2023-05-01T03:25:30.834Z,-89
2023-05-01T03:27:59.651Z,-88
2023-05-01T03:30:28.285Z,-87
2023-05-01T03:32:57.018Z,-88
2023-05-01T03:35:25.870Z,-88
2023-05-01T03:37:54.452Z,-87
2023-05-01T03:40:24.734Z,-87
2023-05-01T03:42:53.516Z,-87
2023-05-01T03:45:22.162Z,-87
2023-05-01T03:47:50.850Z,-86
2023-05-01T03:50:22.416Z,-87
2023-05-01T03:52:51.970Z,-87
2023-05-01T03:55:20.669Z,-86
2023-05-01T03:57:50.878Z,-87
2023-05-01T04:00:19.864Z,-87
2023-05-01T04:02:50.970Z,-87
2023-05-01T04:05:21.680Z,-86
2023-05-01T04:07:50.769Z,-86
2023-05-01T04:10:20.680Z,-86
2023-05-01T04:12:52.031Z,-87
2023-05-01T04:15:24.756Z,-87
2023-05-01T04:17:58.705Z,-86
2023-05-01T04:20:27.779Z,-87
2023-05-01T04:22:57.026Z,-86
2023-05-01T04:25:25.978Z,-86
2023-05-01T04:27:57.495Z,-87
2023-05-01T04:30:26.106Z,-87
2023-05-01T04:32:56.033Z,-86
2023-05-01T04:35:24.775Z,-86
2023-05-01T04:37:53.754Z,-87
2023-05-01T04:40:23.480Z,-87
2023-05-01T04:42:52.037Z,-87
2023-05-01T04:45:22.186Z,-86
2023-05-01T04:47:50.942Z,-86
2023-05-01T04:50:23.581Z,-86
2023-05-01T04:52:53.047Z,-85
2023-05-01T04:55:21.512Z,-86
2023-05-01T04:57:50.158Z,-86
2023-05-01T05:00:19.756Z,-86
2023-05-01T05:02:50.455Z,-86
2023-05-01T05:05:19.355Z,-86
2023-05-01T05:07:48.567Z,-86
2023-05-01T05:10:17.427Z,-86
2023-05-01T05:12:45.988Z,-86
2023-05-01T05:15:14.534Z,-86
2023-05-01T05:17:43.245Z,-86
2023-05-01T05:20:14.781Z,-86
2023-05-01T05:22:43.606Z,-87
2023-05-01T05:25:12.773Z,-86
2023-05-01T05:27:41.349Z,-86
2023-05-01T05:30:11.868Z,-87
2023-05-01T05:32:40.563Z,-86
2023-05-01T05:35:09.946Z,-86
2023-05-01T05:37:40.237Z,-85
2023-05-01T05:40:11.640Z,-86
2023-05-01T05:42:41.097Z,-86
2023-05-01T05:45:11.432Z,-86
2023-05-01T05:47:41.128Z,-86
2023-05-01T05:50:10.995Z,-85
2023-05-01T05:52:41.823Z,-86
2023-05-01T05:55:11.855Z,-86
2023-05-01T05:57:40.750Z,-86
2023-05-01T06:00:10.725Z,-85
2023-05-01T06:02:41.688Z,-86
2023-05-01T06:05:13.049Z,-86
2023-05-01T06:07:44.455Z,-86
2023-05-01T06:10:13.116Z,-86
2023-05-01T06:12:46.186Z,-86
2023-05-01T06:15:28.284Z,-86
2023-05-01T06:18:00.708Z,-86
2023-05-01T06:20:29.605Z,-86
2023-05-01T06:23:00.338Z,-86
2023-05-01T06:25:29.372Z,-86
2023-05-01T06:27:58.382Z,-86
2023-05-01T06:30:27.255Z,-86
2023-05-01T06:32:55.997Z,-86
2023-05-01T06:35:25.106Z,-87
2023-05-01T06:37:53.846Z,-86
2023-05-01T06:40:27.648Z,-86
2023-05-01T06:42:56.437Z,-86
2023-05-01T06:45:25.066Z,-86
2023-05-01T06:47:54.183Z,-86
2023-05-01T06:50:23.107Z,-86
2023-05-01T06:52:51.857Z,-86
2023-05-01T06:55:21.602Z,-86
2023-05-01T06:57:55.815Z,-86
2023-05-01T07:00:25.652Z,-86
2023-05-01T07:02:55.491Z,-86
2023-05-01T07:05:24.860Z,-87
2023-05-01T07:08:01.251Z,-87
2023-05-01T07:10:30.966Z,-86
2023-05-01T07:13:01.638Z,-86
2023-05-01T07:15:31.597Z,-86
2023-05-01T07:18:03.079Z,-86
2023-05-01T07:20:32.213Z,-87
2023-05-01T07:23:01.014Z,-86
2023-05-01T07:25:31.165Z,-87
2023-05-01T07:28:04.704Z,-86
2023-05-01T07:30:33.612Z,-86
2023-05-01T07:33:02.451Z,-86
2023-05-01T07:35:31.346Z,-86
2023-05-01T07:38:00.019Z,-86
2023-05-01T07:40:28.821Z,-86
2023-05-01T07:42:58.867Z,-86
2023-05-01T07:45:28.992Z,-87
2023-05-01T07:47:58.351Z,-86
2023-05-01T07:50:27.453Z,-87
2023-05-01T07:52:56.649Z,-86
2023-05-01T07:55:26.951Z,-87
2023-05-01T07:57:56.280Z,-86
2023-05-01T08:00:25.350Z,-87
2023-05-01T08:02:56.976Z,-85
2023-05-01T08:05:25.855Z,-86
2023-05-01T08:07:54.765Z,-86
2023-05-01T08:10:23.849Z,-86
2023-05-01T08:12:52.951Z,-86
2023-05-01T08:15:22.234Z,-86
2023-05-01T08:17:51.402Z,-86
2023-05-01T08:20:21.827Z,-86
2023-05-01T08:22:51.385Z,-86
2023-05-01T08:25:20.891Z,-86
2023-05-01T08:27:51.306Z,-86
2023-05-01T08:30:20.523Z,-86
2023-05-01T08:32:49.761Z,-85
2023-05-01T08:35:18.656Z,-85
2023-05-01T08:37:49.137Z,-86
2023-05-01T08:40:20.814Z,-85
2023-05-01T08:42:50.428Z,-86
2023-05-01T08:45:21.707Z,-86
2023-05-01T08:47:53.023Z,-86
2023-05-01T08:50:25.010Z,-87
2023-05-01T08:52:56.165Z,-86
2023-05-01T08:55:30.816Z,-86
2023-05-01T08:58:00.880Z,-86
2023-05-01T09:00:32.543Z,-87
2023-05-01T09:03:03.732Z,-86
2023-05-01T09:05:35.234Z,-86
2023-05-01T09:08:06.783Z,-88
2023-05-01T09:10:39.146Z,-86
2023-05-01T09:13:10.099Z,-87
2023-05-01T09:15:39.145Z,-87
2023-05-01T09:18:11.357Z,-87
2023-05-01T09:20:41.042Z,-87
2023-05-01T09:23:14.346Z,-86
2023-05-01T09:25:44.758Z,-87
2023-05-01T09:28:14.044Z,-86
2023-05-01T09:30:43.090Z,-86
2023-05-01T09:33:14.704Z,-85
2023-05-01T09:35:55.210Z,-85
2023-05-01T09:38:27.373Z,-85
2023-05-01T09:41:05.556Z,-85
2023-05-01T09:43:35.069Z,-85
2023-05-01T09:46:10.847Z,-85
2023-05-01T09:48:40.525Z,-86
2023-05-01T09:51:28.266Z,-86
2023-05-01T09:54:00.816Z,-86
2023-05-01T09:56:32.347Z,-86
2023-05-01T09:59:18.333Z,-86
2023-05-01T10:01:50.968Z,-86
2023-05-01T10:04:31.564Z,-88
2023-05-01T10:07:01.576Z,-87
2023-05-01T10:09:32.562Z,-88
2023-05-01T10:12:01.951Z,-88
2023-05-01T10:14:33.838Z,-88
2023-05-01T10:17:09.117Z,-87
2023-05-01T10:19:37.707Z,-87
2023-05-01T10:22:06.609Z,-88
2023-05-01T10:24:40.348Z,-87
2023-05-01T10:27:10.161Z,-87
2023-05-01T10:29:41.861Z,-87
2023-05-01T10:32:11.828Z,-87
2023-05-01T10:34:49.565Z,-87
2023-05-01T10:37:28.741Z,-87
2023-05-01T10:40:01.162Z,-88
2023-05-01T10:42:29.797Z,-88
2023-05-01T10:45:38.219Z,-88
2023-05-01T10:48:07.624Z,-88
2023-05-01T10:50:36.815Z,-88
2023-05-01T10:53:22.247Z,-87
2023-05-01T10:55:51.217Z,-87
2023-05-01T10:58:59.710Z,-87
2023-05-01T11:01:50.333Z,-88
2023-05-01T11:04:54.833Z,-87
2023-05-01T11:07:28.369Z,-86
2023-05-01T11:09:59.159Z,-86
2023-05-01T11:12:52.322Z,-88
2023-05-01T11:15:35.379Z,-89
2023-05-01T11:18:23.069Z,-90
2023-05-01T11:20:51.999Z,-88
2023-05-01T11:23:23.754Z,-86
2023-05-01T11:26:03.841Z,-86
2023-05-01T11:28:34.524Z,-85
2023-05-01T11:31:03.919Z,-85
2023-05-01T11:33:36.042Z,-86
2023-05-01T11:36:05.131Z,-86
2023-05-01T11:38:33.811Z,-85
2023-05-01T11:41:05.884Z,-85
2023-05-01T11:43:34.623Z,-85
2023-05-01T11:46:04.194Z,-86
2023-05-01T11:48:34.825Z,-86
2023-05-01T11:51:13.916Z,-85
2023-05-01T11:53:42.632Z,-84
2023-05-01T11:58:55.329Z,-84
2023-05-01T12:01:24.532Z,-84
2023-05-01T12:03:55.409Z,-83
2023-05-01T12:06:23.976Z,-84
2023-05-01T12:08:53.554Z,-85
2023-05-01T12:11:24.197Z,-84
2023-05-01T12:13:53.386Z,-84
2023-05-01T12:16:24.289Z,-84
2023-05-01T12:18:54.829Z,-83
2023-05-01T12:21:25.380Z,-84
2023-05-01T12:23:54.738Z,-84
2023-05-01T12:26:25.359Z,-84
2023-05-01T12:29:02.872Z,-84
2023-05-01T12:31:32.041Z,-84
2023-05-01T12:34:03.632Z,-84
2023-05-01T12:36:34.351Z,-84
2023-05-01T12:39:05.470Z,-84
2023-05-01T12:41:37.313Z,-84
2023-05-01T12:44:22.483Z,-84
2023-05-01T12:47:01.721Z,-84
2023-05-01T12:49:33.689Z,-84
2023-05-01T12:52:03.751Z,-84
2023-05-01T12:54:34.980Z,-85
2023-05-01T12:57:11.907Z,-85
2023-05-01T12:59:42.318Z,-84
2023-05-01T13:02:13.336Z,-84
2023-05-01T13:04:46.585Z,-84
2023-05-01T13:07:16.721Z,-84
2023-05-01T13:09:55.491Z,-85
2023-05-01T13:12:27.007Z,-85
2023-05-01T13:14:56.457Z,-84
2023-05-01T13:17:27.265Z,-83
2023-05-01T13:19:58.535Z,-83
2023-05-01T13:22:34.804Z,-83
2023-05-01T13:25:06.094Z,-83
2023-05-01T13:27:34.785Z,-85
2023-05-01T13:30:03.916Z,-84
2023-05-01T13:32:33.894Z,-84
2023-05-01T13:35:05.747Z,-84
2023-05-01T13:37:34.562Z,-84
2023-05-01T13:40:06.803Z,-85
2023-05-01T13:42:35.437Z,-84
2023-05-01T13:45:06.595Z,-83
2023-05-01T13:47:39.017Z,-83
2023-05-01T13:50:15.326Z,-83
2023-05-01T13:52:46.994Z,-83
2023-05-01T13:55:16.118Z,-83
2023-05-01T13:57:44.761Z,-83
2023-05-01T14:00:19.343Z,-83
2023-05-01T14:02:50.121Z,-83
2023-05-01T14:05:27.910Z,-83
2023-05-01T14:07:58.585Z,-84
2023-05-01T14:10:29.849Z,-84
2023-05-01T14:13:00.332Z,-84
2023-05-01T14:15:30.183Z,-84
2023-05-01T14:18:01.425Z,-83
2023-05-01T14:20:31.451Z,-84
2023-05-01T14:23:01.441Z,-84
2023-05-01T14:25:34.138Z,-85
2023-05-01T14:28:10.643Z,-83
2023-05-01T14:30:41.650Z,-84
2023-05-01T14:33:12.284Z,-84
2023-05-01T14:35:50.590Z,-84
2023-05-01T14:38:23.346Z,-83
2023-05-01T14:40:53.523Z,-83
2023-05-01T14:43:24.113Z,-83
2023-05-01T14:45:53.156Z,-84
2023-05-01T14:48:25.083Z,-84
2023-05-01T14:50:58.525Z,-84
2023-05-01T14:53:32.481Z,-84
2023-05-01T14:56:01.193Z,-84
2023-05-01T14:58:29.977Z,-84
2023-05-01T15:00:58.697Z,-85
2023-05-01T15:03:27.502Z,-86
2023-05-01T15:05:58.696Z,-86
2023-05-01T15:08:27.797Z,-86
2023-05-01T15:10:57.027Z,-85
2023-05-01T15:13:26.661Z,-86
2023-05-01T15:15:56.306Z,-85
2023-05-01T15:18:26.449Z,-86
2023-05-01T15:20:56.748Z,-85
2023-05-01T15:23:27.460Z,-85
2023-05-01T15:25:57.061Z,-85
2023-05-01T15:28:26.846Z,-85
2023-05-01T15:30:56.220Z,-86
2023-05-01T15:33:24.823Z,-86
2023-05-01T15:35:53.330Z,-86
2023-05-01T15:38:26.195Z,-86
2023-05-01T15:40:55.197Z,-86
2023-05-01T15:43:23.773Z,-86
2023-05-01T15:45:57.874Z,-86
2023-05-01T15:48:26.903Z,-86
2023-05-01T15:50:55.475Z,-86
2023-05-01T15:53:27.904Z,-85
2023-05-01T15:55:59.184Z,-85
2023-05-01T15:58:27.971Z,-85
2023-05-01T16:00:57.109Z,-85
2023-05-01T16:03:29.581Z,-85
2023-05-01T16:05:59.341Z,-85
2023-05-01T16:08:29.357Z,-85
2023-05-01T16:10:58.344Z,-86
2023-05-01T16:13:27.366Z,-85
2023-05-01T16:15:56.392Z,-86
2023-05-01T16:18:26.368Z,-86
2023-05-01T16:20:56.626Z,-86
2023-05-01T16:23:28.744Z,-85
2023-05-01T16:25:57.432Z,-86
2023-05-01T16:28:27.121Z,-86
2023-05-01T16:30:55.727Z,-85
2023-05-01T16:33:24.921Z,-85
2023-05-01T16:35:54.342Z,-87
2023-05-01T16:38:22.853Z,-87
2023-05-01T16:40:52.750Z,-86
2023-05-01T16:43:23.372Z,-86
2023-05-01T16:45:54.282Z,-87
2023-05-01T16:48:25.498Z,-86
2023-05-01T16:50:54.229Z,-87
2023-05-01T16:53:25.188Z,-86
2023-05-01T16:55:55.309Z,-87
2023-05-01T16:58:24.684Z,-86
2023-05-01T17:00:53.351Z,-87
2023-05-01T17:03:22.407Z,-87
2023-05-01T17:05:51.416Z,-87
2023-05-01T17:08:19.922Z,-87
2023-05-01T17:10:48.392Z,-86
2023-05-01T17:13:18.988Z,-86
2023-05-01T17:15:48.514Z,-86
2023-05-01T17:18:17.330Z,-86
2023-05-01T17:20:47.226Z,-86
2023-05-01T17:23:16.398Z,-87
2023-05-01T17:25:45.273Z,-87
2023-05-01T17:28:13.844Z,-87
2023-05-01T17:30:44.226Z,-87
2023-05-01T17:33:13.197Z,-87
2023-05-01T17:35:42.004Z,-87
2023-05-01T17:38:10.992Z,-86
2023-05-01T17:40:40.670Z,-87
2023-05-01T17:43:10.544Z,-87
2023-05-01T17:45:39.784Z,-87
2023-05-01T17:48:11.522Z,-87
2023-05-01T17:50:40.218Z,-87
2023-05-01T17:53:09.714Z,-87
2023-05-01T17:55:39.093Z,-86
2023-05-01T17:58:08.191Z,-86
2023-05-01T18:00:36.650Z,-87
2023-05-01T18:03:06.136Z,-87
2023-05-01T18:05:36.815Z,-86
2023-05-01T18:08:06.064Z,-87
2023-05-01T18:10:34.605Z,-86
2023-05-01T18:13:03.374Z,-86
2023-05-01T18:15:32.203Z,-87
2023-05-01T18:18:01.986Z,-87
2023-05-01T18:20:30.755Z,-87
2023-05-01T18:23:01.251Z,-87
2023-05-01T18:25:30.304Z,-86
2023-05-01T18:27:59.887Z,-86
2023-05-01T18:30:28.700Z,-86
2023-05-01T18:32:57.537Z,-86
2023-05-01T18:35:26.485Z,-86
2023-05-01T18:37:55.154Z,-86
2023-05-01T18:40:27.353Z,-86
2023-05-01T18:42:56.271Z,-86
2023-05-01T18:45:25.207Z,-86
2023-05-01T18:47:53.699Z,-86
2023-05-01T18:50:23.254Z,-86
2023-05-01T18:52:51.890Z,-86
2023-05-01T18:55:20.757Z,-87
2023-05-01T18:57:53.714Z,-87
2023-05-01T19:00:23.486Z,-87
2023-05-01T19:02:53.232Z,-86
2023-05-01T19:05:22.919Z,-86
2023-05-01T19:07:53.659Z,-86
2023-05-01T19:10:22.690Z,-86
2023-05-01T19:16:59.125Z,-86
2023-05-01T19:19:32.706Z,-86
2023-05-01T19:22:04.902Z,-87
2023-05-01T19:24:36.122Z,-87
2023-05-01T19:27:09.779Z,-87
2023-05-01T19:29:41.749Z,-87
2023-05-01T19:32:15.143Z,-86
2023-05-01T19:34:47.644Z,-87
2023-05-01T19:37:18.934Z,-87
2023-05-01T19:39:52.497Z,-87
2023-05-01T19:42:27.565Z,-86
2023-05-01T19:44:56.279Z,-86
2023-05-01T19:47:26.319Z,-86
2023-05-01T19:49:54.990Z,-86
2023-05-01T19:52:23.676Z,-87
2023-05-01T19:54:52.568Z,-86
2023-05-01T19:57:21.165Z,-87
2023-05-01T19:59:51.982Z,-86
2023-05-01T20:02:20.871Z,-86
2023-05-01T20:04:51.106Z,-86
2023-05-01T20:07:19.676Z,-86
2023-05-01T20:09:48.752Z,-86
2023-05-01T20:12:17.948Z,-86
2023-05-01T20:14:46.589Z,-86
2023-05-01T20:17:15.115Z,-86
2023-05-01T20:19:44.625Z,-86
2023-05-01T20:22:14.652Z,-87
2023-05-01T20:24:43.137Z,-86
2023-05-01T20:27:12.052Z,-86
2023-05-01T20:29:42.909Z,-86
2023-05-01T20:32:11.644Z,-86
2023-05-01T20:34:40.122Z,-86
2023-05-01T20:37:08.698Z,-86
2023-05-01T20:39:39.158Z,-86
2023-05-01T20:42:08.208Z,-86
2023-05-01T20:44:37.036Z,-86
2023-05-01T20:47:05.520Z,-85
2023-05-01T20:49:35.675Z,-86
2023-05-01T20:52:04.595Z,-87
2023-05-01T20:54:33.488Z,-87
2023-05-01T20:57:04.077Z,-86
2023-05-01T20:59:33.210Z,-87
2023-05-01T21:02:08.879Z,-86
2023-05-01T21:04:48.580Z,-87
2023-05-01T21:07:17.424Z,-88
2023-05-01T21:09:59.525Z,-88
2023-05-01T21:12:57.528Z,-88
2023-05-01T21:15:52.151Z,-88
2023-05-01T21:18:21.573Z,-88
2023-05-01T21:20:51.304Z,-88
2023-05-01T21:23:20.735Z,-88
2023-05-01T21:25:49.658Z,-90
2023-05-01T21:28:21.036Z,-87
2023-05-01T21:30:51.561Z,-87
2023-05-01T21:33:20.202Z,-87
2023-05-01T21:35:50.563Z,-88
2023-05-01T21:38:31.708Z,-88
2023-05-01T21:41:00.347Z,-89
2023-05-01T21:43:33.291Z,-87
2023-05-01T21:46:02.854Z,-87
2023-05-01T21:48:36.383Z,-87
2023-05-01T21:51:05.510Z,-88
2023-05-01T21:53:37.614Z,-89
2023-05-01T21:56:08.471Z,-88
2023-05-01T21:58:40.513Z,-88
2023-05-01T22:01:09.812Z,-89
2023-05-01T22:03:44.420Z,-89
2023-05-01T22:06:13.503Z,-88
2023-05-01T22:08:43.171Z,-88
2023-05-01T22:11:12.141Z,-87
2023-05-01T22:13:43.720Z,-87
2023-05-01T22:16:14.425Z,-88
2023-05-01T22:18:43.161Z,-87
2023-05-01T22:21:13.436Z,-88
2023-05-01T22:23:42.291Z,-88
2023-05-01T22:26:10.806Z,-89
2023-05-01T22:28:40.405Z,-88
2023-05-01T22:31:10.551Z,-88
2023-05-01T22:33:39.466Z,-88
2023-05-01T22:36:08.992Z,-89
2023-05-01T22:38:37.850Z,-89
2023-05-01T22:41:07.004Z,-89
2023-05-01T22:43:36.532Z,-89
2023-05-01T22:46:06.226Z,-87
2023-05-01T22:48:36.407Z,-87
2023-05-01T22:51:06.930Z,-88
2023-05-01T22:53:35.823Z,-88
2023-05-01T22:56:05.615Z,-88
2023-05-01T22:58:35.130Z,-88
2023-05-01T23:01:04.002Z,-89
2023-05-01T23:03:33.405Z,-86
2023-05-01T23:06:05.696Z,-88
2023-05-01T23:08:34.811Z,-89
2023-05-01T23:11:03.357Z,-88
2023-05-01T23:13:32.446Z,-87
2023-05-01T23:16:01.895Z,-88
2023-05-01T23:18:35.851Z,-88
2023-05-01T23:21:06.828Z,-88
2023-05-01T23:23:37.448Z,-88
2023-05-01T23:26:11.328Z,-88
2023-05-01T23:28:44.506Z,-88
2023-05-01T23:31:22.551Z,-88
2023-05-01T23:33:55.741Z,-87
2023-05-01T23:39:09.107Z,-89
2023-05-01T23:41:38.015Z,-88
2023-05-01T23:44:09.495Z,-88
2023-05-01T23:46:39.399Z,-87
2023-05-01T23:49:08.642Z,-87
2023-05-01T23:51:43.265Z,-86
2023-05-01T23:54:11.784Z,-87
2023-05-01T23:56:40.722Z,-87
2023-05-01T23:59:09.785Z,-89
